Time;durP1;ratioP1;P1;durP2;ratioP2;P2;SDS_P1;SDS_P2;PMS_P1;PMS_P2;Temp;Humidity;BMP_temperature;BMP_pressure;BME280_temperature;BME280_humidity;BME280_pressure;Samples;Min_cycle;Max_cycle;Signal;HPM_P1;HPM_P2
2020/12/13 03:28:52;;;;;;;21.77;9.57;;;3.10;99.90;;;;;;5445180;23;20116;-95
2020/12/13 03:31:17;;;;;;;20.88;10.05;;;3.00;99.90;;;;;;4901559;29;20036;-95
2020/12/13 03:33:43;;;;;;;17.75;7.43;;;3.00;99.90;;;;;;4918790;29;20039;-96
2020/12/13 03:36:08;;;;;;;20.77;9.82;;;3.00;99.90;;;;;;4902450;29;20020;-95
2020/12/13 03:38:34;;;;;;;24.70;11.23;;;3.00;99.90;;;;;;4918301;29;20104;-96
2020/12/13 03:41:00;;;;;;;18.70;9.85;;;2.90;99.90;;;;;;4901393;29;20028;-96
2020/12/13 03:43:25;;;;;;;22.10;9.32;;;2.90;99.90;;;;;;4901127;29;20028;-94
2020/12/13 03:45:51;;;;;;;21.10;9.32;;;2.90;99.90;;;;;;4901302;29;20120;-95
2020/12/13 03:48:17;;;;;;;24.25;9.88;;;2.90;99.90;;;;;;4901744;29;20047;-95
2020/12/13 03:50:42;;;;;;;23.23;8.38;;;2.80;99.90;;;;;;4901610;29;20033;-96
2020/12/13 03:53:18;;;;;;;18.80;8.75;;;2.80;99.90;;;;;;4900019;29;20063;-96
2020/12/13 03:55:44;;;;;;;20.60;8.48;;;2.80;99.90;;;;;;4912822;29;20107;-95
2020/12/13 03:58:10;;;;;;;20.35;9.07;;;2.80;99.90;;;;;;4911735;29;20032;-95
2020/12/13 04:00:36;;;;;;;22.35;9.20;;;2.80;99.90;;;;;;4919701;29;20024;-94
2020/12/13 04:03:04;;;;;;;19.45;8.80;;;2.80;99.90;;;;;;4912273;29;20095;-95
2020/12/13 04:05:31;;;;;;;23.63;9.88;;;2.80;99.90;;;;;;4909094;29;20047;-96
2020/12/13 04:07:57;;;;;;;25.77;9.93;;;2.70;99.90;;;;;;4907753;29;20037;-96
2020/12/13 04:10:27;;;;;;;18.13;8.93;;;2.70;99.90;;;;;;4910663;29;20036;-95
2020/12/13 04:12:53;;;;;;;26.70;10.93;;;2.70;99.90;;;;;;4918158;29;20125;-95
2020/12/13 04:15:19;;;;;;;21.95;9.98;;;2.70;99.90;;;;;;4919005;29;20100;-96
2020/12/13 04:17:45;;;;;;;27.67;10.15;;;2.60;99.90;;;;;;4923959;29;20044;-95
2020/12/13 04:20:11;;;;;;;25.33;9.88;;;2.60;99.90;;;;;;4939103;29;20036;-95
2020/12/13 04:22:37;;;;;;;26.90;9.77;;;2.60;99.90;;;;;;4913389;29;20032;-95
2020/12/13 04:25:09;;;;;;;23.98;9.75;;;2.60;99.90;;;;;;4922983;29;20028;-96
2020/12/13 04:27:35;;;;;;;37.50;9.85;;;2.50;99.90;;;;;;4930580;29;20040;-96
2020/12/13 04:30:01;;;;;;;61.10;12.57;;;2.50;99.90;;;;;;4911620;29;20107;-95
2020/12/13 04:32:27;;;;;;;30.92;10.48;;;2.50;99.90;;;;;;4928263;29;20040;-96
2020/12/13 04:34:53;;;;;;;26.77;10.45;;;2.40;99.90;;;;;;4928327;29;20027;-95
2020/12/13 04:37:20;;;;;;;39.40;11.70;;;2.40;99.90;;;;;;4914137;29;20028;-96
2020/12/13 04:39:45;;;;;;;74.05;13.45;;;2.30;99.90;;;;;;4909602;29;20228;-95
2020/12/13 04:42:11;;;;;;;54.50;12.73;;;2.30;99.90;;;;;;4912378;29;20109;-96
2020/12/13 04:44:37;;;;;;;46.00;11.93;;;2.30;99.90;;;;;;4907737;29;20058;-96
2020/12/13 04:47:05;;;;;;;57.25;13.52;;;2.30;99.90;;;;;;4926550;29;20032;-95
2020/12/13 04:49:36;;;;;;;65.15;13.23;;;2.30;99.90;;;;;;4911978;29;20032;-95
2020/12/13 04:52:03;;;;;;;119.35;15.27;;;2.20;99.90;;;;;;4908615;29;20135;-95
2020/12/13 04:54:30;;;;;;;280.27;18.17;;;2.30;99.90;;;;;;4923724;29;20032;-96
2020/12/13 04:56:58;;;;;;;118.85;14.40;;;2.30;99.90;;;;;;4907451;29;20028;-95
2020/12/13 04:59:27;;;;;;;64.50;12.00;;;2.30;99.90;;;;;;4909710;29;20036;-95
2020/12/13 05:01:56;;;;;;;74.40;12.40;;;2.30;99.90;;;;;;4909243;29;20028;-95
2020/12/13 05:04:22;;;;;;;44.80;12.40;;;2.30;99.90;;;;;;4911650;29;20028;-96
2020/12/13 05:06:48;;;;;;;35.97;11.98;;;2.20;99.90;;;;;;4911936;29;20046;-96
2020/12/13 05:09:15;;;;;;;39.40;13.30;;;2.20;99.90;;;;;;4916227;29;20028;-96
2020/12/13 05:11:45;;;;;;;155.90;14.50;;;2.30;99.90;;;;;;4939647;29;20020;-96
2020/12/13 05:14:13;;;;;;;90.72;13.80;;;2.30;99.90;;;;;;4924457;29;20047;-96
2020/12/13 05:16:39;;;;;;;62.42;13.88;;;2.30;99.90;;;;;;4924061;29;20104;-96
2020/12/13 05:19:07;;;;;;;35.33;11.63;;;2.30;99.90;;;;;;4941025;29;20036;-96
2020/12/13 05:21:36;;;;;;;31.75;10.68;;;2.30;99.90;;;;;;4941356;29;20029;-96
2020/12/13 05:24:07;;;;;;;33.13;11.40;;;2.30;99.90;;;;;;4923657;29;20032;-96
2020/12/13 05:26:34;;;;;;;33.83;11.50;;;2.30;99.90;;;;;;4924177;29;20052;-95
2020/12/13 05:29:03;;;;;;;29.65;10.98;;;2.30;99.90;;;;;;4910836;29;20032;-96
2020/12/13 05:31:31;;;;;;;33.88;12.50;;;2.30;99.90;;;;;;4930397;29;20043;-96
2020/12/13 05:36:37;;;;;;;36.47;11.98;;;2.40;99.90;;;;;;5326524;23;20068;-95
2020/12/13 05:39:12;;;;;;;37.75;13.82;;;2.40;99.90;;;;;;4924824;29;20040;-94
2020/12/13 05:41:39;;;;;;;34.90;12.35;;;2.30;99.90;;;;;;4939367;29;20028;-95
2020/12/13 05:47:02;;;;;;;36.83;11.65;;;2.30;99.90;;;;;;4940234;29;20063;-95
2020/12/13 05:52:14;;;;;;;27.50;11.73;;;2.30;99.90;;;;;;4925730;29;20453;-93
2020/12/13 05:54:40;;;;;;;33.90;12.07;;;2.30;99.90;;;;;;4905680;29;20028;-93
2020/12/13 05:57:10;;;;;;;29.58;12.05;;;2.40;99.90;;;;;;4912450;29;20028;-95
2020/12/13 05:59:35;;;;;;;31.10;11.45;;;2.30;99.90;;;;;;4908719;29;20095;-96
2020/12/13 06:02:02;;;;;;;36.20;13.98;;;2.30;99.90;;;;;;4925579;29;20083;-95
2020/12/13 06:04:32;;;;;;;32.03;12.68;;;2.30;99.90;;;;;;4927476;29;20107;-96
2020/12/13 06:07:04;;;;;;;29.25;11.68;;;2.30;99.90;;;;;;4906797;29;20036;-95
2020/12/13 06:09:35;;;;;;;31.65;12.45;;;2.40;99.90;;;;;;4910821;29;20101;-93
2020/12/13 06:12:08;;;;;;;31.05;12.02;;;2.50;99.90;;;;;;4929668;29;20048;-96
2020/12/13 06:14:41;;;;;;;39.42;12.20;;;2.40;99.90;;;;;;4910229;29;20036;-93
2020/12/13 06:17:07;;;;;;;26.75;10.68;;;2.40;99.90;;;;;;4920575;29;20109;-96
2020/12/13 06:19:37;;;;;;;31.60;11.23;;;2.50;99.90;;;;;;4937002;29;20039;-96
2020/12/13 06:22:07;;;;;;;25.93;10.87;;;2.50;99.90;;;;;;4924759;29;20027;-96
2020/12/13 06:24:36;;;;;;;35.20;12.25;;;2.50;99.90;;;;;;4925562;23;20076;-95
2020/12/13 06:27:07;;;;;;;28.45;11.45;;;2.50;99.90;;;;;;4944438;29;20040;-96
2020/12/13 07:07:59;;;;;;;27.42;11.30;;;2.90;99.90;;;;;;3667169;23;20407;-93
2020/12/13 07:10:27;;;;;;;21.25;9.88;;;2.90;99.90;;;;;;4863700;29;20042;-96
2020/12/13 07:12:56;;;;;;;33.78;10.95;;;3.00;99.90;;;;;;4868717;29;20046;-95
2020/12/13 07:15:39;;;;;;;26.92;10.45;;;3.00;99.90;;;;;;4852816;29;20025;-96
2020/12/13 07:18:10;;;;;;;22.17;9.65;;;3.00;99.90;;;;;;4851117;29;20022;-96
2020/12/13 07:20:36;;;;;;;21.10;9.18;;;3.10;99.90;;;;;;4865954;29;20031;-95
2020/12/13 07:23:04;;;;;;;29.13;9.80;;;3.10;99.90;;;;;;4849579;29;20034;-94
2020/12/13 07:25:29;;;;;;;24.52;9.05;;;3.10;99.90;;;;;;4865662;29;20045;-95
2020/12/13 07:27:57;;;;;;;31.48;9.77;;;3.10;99.90;;;;;;4869566;29;20051;-96
2020/12/13 07:30:24;;;;;;;21.92;8.45;;;3.10;99.90;;;;;;4851081;29;20093;-95
2020/12/13 07:32:50;;;;;;;27.30;9.15;;;3.10;99.90;;;;;;4856030;29;20057;-96
2020/12/13 07:35:19;;;;;;;29.17;9.32;;;3.20;99.90;;;;;;4880134;29;20025;-96
2020/12/13 07:37:45;;;;;;;23.75;8.93;;;3.20;99.90;;;;;;4869119;29;20037;-95
2020/12/13 07:40:12;;;;;;;22.27;7.95;;;3.20;99.90;;;;;;4867981;29;20113;-96
2020/12/13 07:43:07;;;;;;;19.45;7.88;;;3.20;99.90;;;;;;4874592;29;20066;-96
2020/12/13 07:45:33;;;;;;;19.30;7.38;;;3.20;99.90;;;;;;4865938;29;20472;-95
2020/12/13 07:48:02;;;;;;;27.17;8.52;;;3.20;99.90;;;;;;4871143;29;20037;-96
2020/12/13 07:50:41;;;;;;;21.13;7.95;;;3.20;99.90;;;;;;4855242;29;20023;-96
2020/12/13 07:53:07;;;;;;;21.85;8.05;;;3.30;99.90;;;;;;4848909;29;20133;-96
2020/12/13 07:55:33;;;;;;;20.33;7.45;;;3.30;99.90;;;;;;4867493;29;20065;-96
2020/12/13 07:58:00;;;;;;;19.58;8.02;;;3.20;99.90;;;;;;4869809;29;20021;-96
2020/12/13 08:00:28;;;;;;;13.43;6.57;;;3.30;99.90;;;;;;4863457;29;20018;-96
2020/12/13 08:02:59;;;;;;;15.38;6.10;;;3.30;99.90;;;;;;4860051;29;20040;-96
2020/12/13 08:05:26;;;;;;;23.38;5.85;;;3.30;99.90;;;;;;4871037;29;20483;-95
2020/12/13 08:08:01;;;;;;;16.85;5.70;;;3.30;99.90;;;;;;4852858;29;20154;-95
2020/12/13 08:10:28;;;;;;;21.88;6.90;;;3.30;99.90;;;;;;4850111;29;20032;-95
2020/12/13 08:12:55;;;;;;;16.33;5.80;;;3.30;99.90;;;;;;4864566;29;20045;-96
2020/12/13 08:15:21;;;;;;;23.52;6.15;;;3.40;99.90;;;;;;4849058;29;20058;-95
2020/12/13 08:18:03;;;;;;;14.85;5.68;;;3.40;99.90;;;;;;4848496;29;20033;-95
2020/12/13 08:20:31;;;;;;;16.60;5.70;;;3.40;99.90;;;;;;4860287;29;20018;-96
2020/12/13 08:23:16;;;;;;;15.13;5.45;;;3.40;99.90;;;;;;4854999;29;20046;-95
2020/12/13 08:25:54;;;;;;;13.57;5.18;;;3.40;99.90;;;;;;4856963;29;20010;-96
2020/12/13 08:28:30;;;;;;;20.52;5.50;;;3.50;99.90;;;;;;4851076;29;20040;-95
2020/12/13 08:30:58;;;;;;;16.25;6.13;;;3.50;99.90;;;;;;4846802;29;20038;-95
2020/12/13 08:33:45;;;;;;;15.07;5.03;;;3.50;99.90;;;;;;4863735;29;20033;-95
2020/12/13 08:52:34;;;;;;;16.48;5.43;;;3.70;99.90;;;;;;4905012;29;20035;-95
2020/12/13 08:55:07;;;;;;;17.75;4.68;;;3.70;99.90;;;;;;4896171;29;20023;-96
2020/12/13 08:57:35;;;;;;;15.32;3.80;;;3.70;99.90;;;;;;4914493;29;20036;-95
2020/12/13 09:05:11;;;;;;;10.13;3.47;;;3.80;99.90;;;;;;5185437;23;20075;-96
2020/12/13 09:07:43;;;;;;;11.57;3.97;;;3.80;99.90;;;;;;4913385;29;20048;-95
2020/12/13 09:10:09;;;;;;;13.00;3.25;;;3.90;99.90;;;;;;4916953;29;20074;-95
2020/12/13 09:20:27;;;;;;;19.13;4.22;;;4.00;99.90;;;;;;4933288;29;20052;-95
2020/12/13 17:05:38;;;;;;;3.40;2.03;;;8.20;99.90;;;;;;5148962;23;20074;-94
2020/12/13 17:08:08;;;;;;;2.47;1.90;;;8.20;99.90;;;;;;4929474;29;20027;-94
2020/12/13 17:10:36;;;;;;;4.15;2.83;;;8.30;99.90;;;;;;4944426;29;20020;-93
2020/12/13 17:13:06;;;;;;;3.92;3.20;;;8.20;99.90;;;;;;4912577;29;20035;-94
2020/12/13 17:15:33;;;;;;;2.50;2.30;;;8.30;99.90;;;;;;4928074;29;20044;-92
2020/12/13 17:18:01;;;;;;;6.22;2.45;;;8.30;99.90;;;;;;4927951;29;20012;-93
2020/12/13 17:20:27;;;;;;;3.63;2.75;;;8.30;99.90;;;;;;4927825;29;20021;-94
2020/12/13 17:22:53;;;;;;;2.42;2.22;;;8.30;99.90;;;;;;4927735;29;20042;-94
2020/12/13 17:25:19;;;;;;;2.30;1.65;;;8.30;99.90;;;;;;4927674;29;20088;-94
2020/12/13 17:27:46;;;;;;;1.92;1.75;;;8.40;99.90;;;;;;4927784;29;20040;-94
2020/12/13 17:30:13;;;;;;;4.53;2.35;;;8.40;99.90;;;;;;4927515;29;20012;-93
2020/12/13 17:32:48;;;;;;;2.42;1.38;;;8.40;99.90;;;;;;4927150;29;20040;-94
2020/12/13 17:35:20;;;;;;;16.13;3.92;;;8.40;99.90;;;;;;4927723;29;20036;-94
2020/12/13 17:37:45;;;;;;;2.75;1.65;;;8.40;99.90;;;;;;4927630;29;20016;-94
2020/12/13 17:40:15;;;;;;;2.85;2.10;;;8.40;99.90;;;;;;4927522;29;20016;-94
2020/12/13 17:42:44;;;;;;;6.95;2.55;;;8.50;99.90;;;;;;4927496;29;20091;-94
2020/12/13 17:45:15;;;;;;;2.00;1.67;;;8.50;99.90;;;;;;4927611;29;20024;-94
2020/12/13 17:47:42;;;;;;;2.00;1.80;;;8.50;99.90;;;;;;4927370;29;20024;-94
2020/12/13 17:56:04;;;;;;;2.20;1.80;;;8.60;99.90;;;;;;4904936;29;20030;-95
2020/12/13 17:58:42;;;;;;;2.67;1.90;;;8.60;99.90;;;;;;4926905;29;20029;-94
2020/12/13 18:01:16;;;;;;;2.78;1.80;;;8.60;99.90;;;;;;4926805;29;20032;-94
2020/12/13 18:03:46;;;;;;;6.78;2.50;;;8.70;99.90;;;;;;4924861;29;20031;-95
2020/12/13 18:06:14;;;;;;;2.78;2.30;;;8.70;99.90;;;;;;4925761;29;20048;-96
2020/12/13 18:08:40;;;;;;;2.65;1.90;;;8.80;99.90;;;;;;4943176;29;20039;-93
2020/12/13 18:11:09;;;;;;;3.33;2.88;;;8.80;99.90;;;;;;4927125;29;20032;-94
2020/12/13 18:13:50;;;;;;;6.13;4.60;;;8.80;99.90;;;;;;4911548;29;20029;-94
2020/12/13 18:16:16;;;;;;;4.53;3.83;;;8.90;99.90;;;;;;4926797;29;20020;-94
2020/12/13 18:18:44;;;;;;;4.95;4.28;;;9.00;99.90;;;;;;4926843;29;20055;-96
2020/12/13 18:21:19;;;;;;;5.88;4.60;;;9.00;99.90;;;;;;4926840;29;20016;-95
2020/12/13 18:23:45;;;;;;;7.43;4.95;;;9.00;99.90;;;;;;4926724;29;20028;-94
2020/12/13 18:26:13;;;;;;;7.75;5.72;;;9.00;99.90;;;;;;4926491;29;20023;-94
2020/12/13 18:28:47;;;;;;;6.75;4.22;;;9.00;99.90;;;;;;4926448;29;20032;-94
2020/12/13 18:31:17;;;;;;;6.38;5.32;;;9.10;99.90;;;;;;4926751;29;20036;-94
2020/12/13 18:33:46;;;;;;;5.70;4.55;;;9.10;99.90;;;;;;4926676;29;20043;-94
2020/12/13 18:36:23;;;;;;;5.78;4.32;;;9.10;99.90;;;;;;4926489;29;20088;-95
2020/12/13 18:38:51;;;;;;;4.03;3.50;;;9.10;99.90;;;;;;4926415;29;20016;-94
2020/12/13 18:41:20;;;;;;;3.67;3.22;;;9.20;99.90;;;;;;4926335;29;20025;-94
2020/12/13 18:43:48;;;;;;;3.63;2.90;;;9.20;99.90;;;;;;4925219;29;20008;-94
2020/12/13 18:46:14;;;;;;;2.90;2.60;;;9.30;99.90;;;;;;4926543;29;20027;-93
2020/12/13 18:48:43;;;;;;;3.72;2.65;;;9.40;99.90;;;;;;4915337;29;20036;-95
2020/12/13 18:51:12;;;;;;;3.90;2.60;;;9.40;99.90;;;;;;4917380;29;20055;-94
2020/12/13 18:53:40;;;;;;;3.72;2.38;;;9.40;99.90;;;;;;4922977;29;20016;-92
2020/12/13 18:56:13;;;;;;;11.82;6.13;;;9.50;99.90;;;;;;4921280;29;20036;-95
2020/12/13 18:58:39;;;;;;;2.63;1.80;;;9.50;99.90;;;;;;4904036;29;20028;-96
2020/12/13 19:01:05;;;;;;;2.53;1.88;;;9.60;99.90;;;;;;4904999;29;20051;-95
2020/12/13 19:05:56;;;;;;;2.65;1.67;;;9.60;99.90;;;;;;4922367;29;20040;-96
2020/12/13 19:08:22;;;;;;;1.67;1.50;;;9.60;99.90;;;;;;4904057;29;20113;-93
2020/12/13 19:10:48;;;;;;;2.65;2.28;;;9.60;99.90;;;;;;4904246;29;20036;-94
2020/12/13 19:13:16;;;;;;;5.53;2.83;;;9.50;99.90;;;;;;4904308;29;20040;-94
2020/12/13 19:15:42;;;;;;;4.40;1.60;;;9.50;99.90;;;;;;4904288;29;20114;-94
2020/12/13 19:18:07;;;;;;;1.50;1.40;;;9.50;99.90;;;;;;4906113;29;20059;-95
2020/12/13 19:20:35;;;;;;;3.65;1.50;;;9.50;99.90;;;;;;4905435;29;20055;-95
2020/12/13 19:23:01;;;;;;;3.15;1.65;;;9.40;99.90;;;;;;4903586;29;20029;-94
2020/12/13 19:25:29;;;;;;;3.95;1.52;;;9.50;99.90;;;;;;4906914;29;20039;-96
2020/12/13 19:27:56;;;;;;;5.57;2.10;;;9.40;99.90;;;;;;4917648;29;20060;-95
2020/12/13 19:30:25;;;;;;;2.45;1.90;;;9.40;99.90;;;;;;4915579;29;20012;-96
2020/12/13 19:32:54;;;;;;;6.57;2.47;;;9.40;99.90;;;;;;4919335;29;20042;-95
2020/12/13 19:35:20;;;;;;;5.38;2.30;;;9.40;99.90;;;;;;4920461;29;20024;-95
2020/12/13 19:37:46;;;;;;;3.25;1.98;;;9.40;99.90;;;;;;4918784;29;20039;-96
2020/12/13 19:40:12;;;;;;;8.25;2.78;;;9.40;99.90;;;;;;4909149;29;20033;-96
2020/12/13 19:42:56;;;;;;;4.70;2.13;;;9.30;99.90;;;;;;4908787;29;20036;-95
2020/12/13 19:45:22;;;;;;;9.00;3.13;;;9.30;99.90;;;;;;4904924;29;20055;-96
2020/12/13 19:47:51;;;;;;;6.72;3.03;;;9.30;99.90;;;;;;4908958;29;20437;-95
2020/12/13 19:50:17;;;;;;;4.90;3.15;;;9.20;99.90;;;;;;4920478;29;20037;-95
2020/12/13 19:52:43;;;;;;;13.20;3.45;;;9.20;99.90;;;;;;4919645;29;20032;-95
2020/12/13 19:55:08;;;;;;;7.03;2.95;;;9.20;99.90;;;;;;4909539;29;20024;-96
2020/12/13 19:57:38;;;;;;;12.38;3.75;;;9.20;99.90;;;;;;4901297;29;20073;-95
2020/12/13 20:00:05;;;;;;;15.35;3.63;;;9.30;99.90;;;;;;4893737;29;20039;-96
2020/12/13 20:02:32;;;;;;;8.15;3.78;;;9.30;99.90;;;;;;4895938;29;20127;-95
2020/12/13 20:04:58;;;;;;;10.05;3.80;;;9.30;99.90;;;;;;4906594;29;20052;-96
2020/12/13 20:07:23;;;;;;;8.07;3.55;;;9.20;99.90;;;;;;4904395;29;20181;-95
2020/12/13 20:09:49;;;;;;;8.98;2.75;;;9.30;99.90;;;;;;4906741;29;20043;-95
2020/12/13 20:12:15;;;;;;;15.18;2.97;;;9.30;99.90;;;;;;4904019;29;20032;-96
2020/12/13 21:19:06;;;;;;;18.83;3.63;;;9.30;99.90;;;;;;4932622;29;20027;-93
2020/12/13 21:21:34;;;;;;;20.17;3.90;;;9.30;99.90;;;;;;4920200;29;20035;-96
2020/12/13 21:39:56;;;;;;;22.10;4.32;;;9.40;99.90;;;;;;4921941;29;20042;-95
2020/12/13 21:44:54;;;;;;;14.15;3.92;;;9.40;99.90;;;;;;4922994;29;20080;-93
2020/12/13 21:47:31;;;;;;;16.02;2.83;;;9.40;99.90;;;;;;4896424;29;20028;-96
2020/12/13 21:52:43;;;;;;;18.05;3.42;;;9.50;99.90;;;;;;4896693;29;20043;-96
2020/12/13 21:55:20;;;;;;;20.45;3.40;;;9.50;99.90;;;;;;4900221;29;20025;-95
2020/12/13 21:57:46;;;;;;;18.58;3.40;;;9.50;99.90;;;;;;4933315;29;20020;-93
2020/12/13 22:08:20;;;;;;;24.08;3.60;;;9.40;99.90;;;;;;4912828;29;20051;-96
2020/12/13 22:26:53;;;;;;;22.90;4.22;;;9.40;99.90;;;;;;4923444;29;20040;-94
2020/12/13 22:29:18;;;;;;;16.20;2.92;;;9.50;99.90;;;;;;4908815;29;20036;-96
2020/12/13 22:31:45;;;;;;;24.42;4.03;;;9.50;99.90;;;;;;4911903;29;20024;-96
2020/12/13 22:34:14;;;;;;;26.23;3.22;;;9.50;99.90;;;;;;4897538;29;20088;-95
2020/12/13 22:36:40;;;;;;;20.08;2.83;;;9.50;99.90;;;;;;4903524;29;20051;-95
2020/12/13 22:39:07;;;;;;;21.77;3.25;;;9.50;99.90;;;;;;4903833;29;20107;-95
2020/12/13 22:41:34;;;;;;;15.63;2.92;;;9.60;99.90;;;;;;4899452;29;20128;-96
2020/12/13 22:43:59;;;;;;;14.93;3.13;;;9.50;99.90;;;;;;4904008;29;20394;-96
2020/12/13 22:46:27;;;;;;;22.73;3.08;;;9.50;99.90;;;;;;4905224;29;20044;-96
2020/12/13 22:48:52;;;;;;;13.13;2.63;;;9.50;99.90;;;;;;4897124;29;20036;-94
2020/12/13 22:51:19;;;;;;;23.27;3.20;;;9.50;99.90;;;;;;4904023;29;20386;-95
2020/12/13 22:53:45;;;;;;;29.23;3.35;;;9.60;99.90;;;;;;4890013;29;20508;-95
2020/12/13 22:56:11;;;;;;;31.73;6.18;;;9.60;99.90;;;;;;4903484;29;20029;-96
2020/12/13 22:58:37;;;;;;;22.33;3.65;;;9.60;99.90;;;;;;4915788;29;20505;-96
2020/12/13 23:01:04;;;;;;;31.08;3.63;;;9.60;99.90;;;;;;4876241;29;20581;-96
2020/12/13 23:03:30;;;;;;;18.00;3.35;;;9.60;99.90;;;;;;4888411;29;20043;-96
2020/12/13 23:05:56;;;;;;;14.70;3.50;;;9.60;99.90;;;;;;4904819;29;20557;-96
2020/12/13 23:08:21;;;;;;;21.73;3.65;;;9.50;99.90;;;;;;4904951;29;20028;-95
2020/12/13 23:10:49;;;;;;;20.10;3.45;;;9.50;99.90;;;;;;4905682;29;20060;-94
2020/12/13 23:13:16;;;;;;;21.67;3.30;;;9.50;99.90;;;;;;4917160;29;20032;-96
2020/12/13 23:15:44;;;;;;;21.67;3.55;;;9.50;99.90;;;;;;4904222;29;20024;-95
2020/12/13 23:18:14;;;;;;;21.60;3.47;;;9.60;99.90;;;;;;4903232;29;20044;-94
2020/12/13 23:20:41;;;;;;;21.77;3.70;;;9.60;99.90;;;;;;4903135;29;20028;-94
2020/12/13 23:23:08;;;;;;;12.63;2.22;;;9.60;99.90;;;;;;4903287;29;20034;-95
2020/12/13 23:25:35;;;;;;;22.75;2.95;;;9.60;99.90;;;;;;4903527;29;20032;-93
2020/12/13 23:28:01;;;;;;;30.88;3.80;;;9.60;99.90;;;;;;4907516;29;20048;-94
2020/12/13 23:30:27;;;;;;;22.45;4.20;;;9.60;99.90;;;;;;4915256;29;20028;-95
2020/12/13 23:32:55;;;;;;;30.65;3.65;;;9.60;99.90;;;;;;4901720;29;20036;-95
2020/12/13 23:35:24;;;;;;;24.52;3.75;;;9.60;99.90;;;;;;4902778;29;20035;-94
2020/12/13 23:37:51;;;;;;;26.48;4.22;;;9.60;99.90;;;;;;4901863;29;20059;-94
2020/12/13 23:40:18;;;;;;;23.77;3.42;;;9.60;99.90;;;;;;4901742;29;20386;-95
2020/12/13 23:42:44;;;;;;;31.40;4.15;;;9.50;99.90;;;;;;4901843;29;20095;-93
2020/12/13 23:45:13;;;;;;;27.65;4.20;;;9.50;99.90;;;;;;4903217;29;20036;-94
2020/12/13 23:47:39;;;;;;;34.88;4.40;;;9.50;99.90;;;;;;4901870;29;20024;-94
2020/12/13 23:50:07;;;;;;;29.83;4.85;;;9.50;99.90;;;;;;4904608;29;20111;-96
2020/12/13 23:52:33;;;;;;;19.10;2.75;;;9.40;99.90;;;;;;4903663;29;20058;-95
2020/12/13 23:54:59;;;;;;;24.33;4.53;;;9.40;99.90;;;;;;4902997;29;20024;-95
2020/12/13 23:57:25;;;;;;;23.10;3.58;;;9.40;99.90;;;;;;4904057;29;20028;-96
2020/12/13 23:59:51;;;;;;;21.92;3.20;;;9.40;99.90;;;;;;4903754;29;20401;-95
